Time,TemperatureF,DewpointF,PressureIn,WindDirection,WindDirectionDegrees,WindSpeedMPH,WindSpeedGustMPH,Humidity,HourlyPrecipIn,Conditions,Clouds,dailyrainin,SoftwareType,DateUTC
2013-02-13 00:03:00,39.6,33.6,29.74,SSW,202,1.6,-999.0,79,-99.99,,,0.00,Acu-Link.com,2013-02-13 05:03:00,
2013-02-13 00:18:00,39.2,33.6,29.73,SSW,202,1.6,-999.0,80,-99.99,,,0.00,Acu-Link.com,2013-02-13 05:18:00,
2013-02-13 00:33:00,39.2,33.9,29.73,SSW,202,0.0,-999.0,81,-99.99,,,0.00,Acu-Link.com,2013-02-13 05:33:00,
2013-02-13 00:49:00,39.2,33.9,29.71,SSW,202,0.0,-999.0,81,-99.99,,,0.00,Acu-Link.com,2013-02-13 05:49:00,
2013-02-13 01:04:00,39.6,34.2,29.71,SSW,202,2.2,-999.0,81,-99.99,,,0.00,Acu-Link.com,2013-02-13 06:04:00,
2013-02-13 01:19:00,40.1,34.1,29.71,SSW,202,2.7,-999.0,79,-99.99,,,0.00,Acu-Link.com,2013-02-13 06:19:00,
2013-02-13 01:34:00,40.6,33.7,29.70,SSW,202,1.1,-999.0,76,-99.99,,,0.00,Acu-Link.com,2013-02-13 06:34:00,
2013-02-13 01:49:00,40.3,34.3,29.68,SSW,202,1.1,-999.0,79,-99.99,,,0.00,Acu-Link.com,2013-02-13 06:49:00,
2013-02-13 02:05:00,40.1,34.7,29.69,SSW,202,2.2,-999.0,81,-99.99,,,0.00,Acu-Link.com,2013-02-13 07:05:00,
2013-02-13 02:20:00,40.3,34.9,29.69,SSW,202,0.0,-999.0,81,-99.99,,,0.00,Acu-Link.com,2013-02-13 07:20:00,
2013-02-13 02:35:00,40.1,34.4,29.68,SSW,202,0.0,-999.0,80,-99.99,,,0.00,Acu-Link.com,2013-02-13 07:35:00,
2013-02-13 02:50:00,40.3,35.2,29.68,SSW,202,1.1,-999.0,82,-99.99,,,0.00,Acu-Link.com,2013-02-13 07:50:00,
2013-02-13 03:05:00,41.2,36.1,29.68,SSW,202,0.0,-999.0,82,-99.99,,,0.00,Acu-Link.com,2013-02-13 08:05:00,
2013-02-13 03:21:00,41.0,35.9,29.67,SSW,202,1.6,-999.0,82,-99.99,,,0.00,Acu-Link.com,2013-02-13 08:21:00,
2013-02-13 03:36:00,41.2,36.4,29.66,SSW,202,1.6,-999.0,83,-99.99,,,0.00,Acu-Link.com,2013-02-13 08:36:00,
2013-02-13 03:51:00,41.4,36.9,29.64,SSW,202,0.0,-999.0,84,-99.99,,,0.00,Acu-Link.com,2013-02-13 08:51:00,
2013-02-13 04:16:00,41.4,37.2,29.64,SSW,202,0.0,-999.0,85,-99.99,,,0.00,Acu-Link.com,2013-02-13 09:16:00,
2013-02-13 04:31:00,41.2,37.6,29.63,SSW,202,0.0,-999.0,87,-99.99,,,0.00,Acu-Link.com,2013-02-13 09:31:00,
2013-02-13 04:46:00,41.5,38.0,29.62,SSW,202,0.0,-999.0,87,-99.99,,,0.00,Acu-Link.com,2013-02-13 09:46:00,
2013-02-13 05:01:00,41.4,37.8,29.62,SSW,202,2.2,-999.0,87,-99.99,,,0.00,Acu-Link.com,2013-02-13 10:01:00,
2013-02-13 05:16:00,41.7,38.1,29.60,SSW,202,1.6,-999.0,87,-99.99,,,0.00,Acu-Link.com,2013-02-13 10:16:00,
2013-02-13 05:31:00,41.5,38.3,29.60,SSW,202,2.2,-999.0,88,-99.99,,,0.00,Acu-Link.com,2013-02-13 10:31:00,
2013-02-13 05:46:00,41.5,38.0,29.61,SSW,202,1.6,-999.0,87,-99.99,,,0.00,Acu-Link.com,2013-02-13 10:46:00,
2013-02-13 06:02:00,41.5,38.3,29.60,SSW,202,1.6,-999.0,88,-99.99,,,0.00,Acu-Link.com,2013-02-13 11:02:00,
2013-02-13 06:17:00,41.5,38.0,29.59,SSW,202,0.0,-999.0,87,-99.99,,,0.00,Acu-Link.com,2013-02-13 11:17:00,
2013-02-13 06:32:00,41.7,38.1,29.60,SSW,202,1.6,-999.0,87,-99.99,,,0.00,Acu-Link.com,2013-02-13 11:32:00,
2013-02-13 06:47:00,41.5,38.3,29.60,SSW,202,2.2,-999.0,88,-99.99,,,0.00,Acu-Link.com,2013-02-13 11:47:00,
2013-02-13 07:03:00,41.2,39.3,29.60,SSW,202,0.0,-999.0,93,-99.99,,,0.01,Acu-Link.com,2013-02-13 12:03:00,
2013-02-13 07:18:00,40.3,39.8,29.59,SSW,202,1.1,-999.0,98,-99.99,,,0.01,Acu-Link.com,2013-02-13 12:18:00,
2013-02-13 07:33:00,40.1,39.6,29.60,SSW,202,0.0,-999.0,98,-99.99,,,0.01,Acu-Link.com,2013-02-13 12:33:00,
2013-02-13 07:48:00,40.3,39.8,29.59,SSW,202,2.2,-999.0,98,-99.99,,,0.01,Acu-Link.com,2013-02-13 12:48:00,
2013-02-13 08:03:00,40.5,39.9,29.61,SSW,202,1.6,-999.0,98,-99.99,,,0.01,Acu-Link.com,2013-02-13 13:03:00,
2013-02-13 08:19:00,41.0,40.5,29.59,SSW,202,0.0,-999.0,98,-99.99,,,0.02,Acu-Link.com,2013-02-13 13:19:00,
2013-02-13 08:34:00,41.9,41.4,29.60,SSW,202,0.0,-999.0,98,-99.99,,,0.04,Acu-Link.com,2013-02-13 13:34:00,
2013-02-13 08:49:00,41.9,41.4,29.61,SSW,202,2.2,-999.0,98,-99.99,,,0.04,Acu-Link.com,2013-02-13 13:49:00,
2013-02-13 09:04:00,41.9,41.4,29.60,SSW,202,0.0,-999.0,98,-99.99,,,0.04,Acu-Link.com,2013-02-13 14:04:00,
2013-02-13 09:20:00,42.1,41.6,29.60,SSW,202,1.1,-999.0,98,-99.99,,,0.05,Acu-Link.com,2013-02-13 14:20:00,
2013-02-13 09:35:00,42.3,41.7,29.59,SSW,202,1.6,-999.0,98,-99.99,,,0.05,Acu-Link.com,2013-02-13 14:35:00,
2013-02-13 09:50:00,42.6,42.1,29.58,SSW,202,2.2,-999.0,98,-99.99,,,0.05,Acu-Link.com,2013-02-13 14:50:00,
2013-02-13 10:05:00,42.1,41.6,29.58,SSW,202,0.0,-999.0,98,-99.99,,,0.05,Acu-Link.com,2013-02-13 15:05:00,
2013-02-13 10:20:00,42.3,41.7,29.58,SSW,202,1.1,-999.0,98,-99.99,,,0.06,Acu-Link.com,2013-02-13 15:20:00,
2013-02-13 10:36:00,42.3,41.7,29.57,SSW,202,0.0,-999.0,98,-99.99,,,0.08,Acu-Link.com,2013-02-13 15:36:00,
2013-02-13 10:51:00,41.9,41.4,29.57,SSW,202,1.6,-999.0,98,-99.99,,,0.08,Acu-Link.com,2013-02-13 15:51:00,
2013-02-13 11:06:00,41.7,41.2,29.56,SSW,202,2.7,-999.0,98,-99.99,,,0.08,Acu-Link.com,2013-02-13 16:06:00,
2013-02-13 11:21:00,41.5,41.0,29.57,NW,315,0.0,-999.0,98,-99.99,,,0.08,Acu-Link.com,2013-02-13 16:21:00,
2013-02-13 11:36:00,41.7,41.2,29.56,NNE,22,2.2,-999.0,98,-99.99,,,0.08,Acu-Link.com,2013-02-13 16:36:00,
2013-02-13 11:52:00,41.7,41.2,29.54,NNE,22,1.6,-999.0,98,-99.99,,,0.08,Acu-Link.com,2013-02-13 16:52:00,
2013-02-13 12:07:00,41.9,41.4,29.54,NW,315,1.6,-999.0,98,-99.99,,,0.08,Acu-Link.com,2013-02-13 17:07:00,
2013-02-13 12:22:00,42.3,41.7,29.53,NW,315,2.7,-999.0,98,-99.99,,,0.08,Acu-Link.com,2013-02-13 17:22:00,
2013-02-13 12:37:00,42.6,42.1,29.51,NW,315,0.0,-999.0,98,-99.99,,,0.08,Acu-Link.com,2013-02-13 17:37:00,
2013-02-13 12:53:00,42.8,42.3,29.50,NW,315,1.6,-999.0,98,-99.99,,,0.08,Acu-Link.com,2013-02-13 17:53:00,
2013-02-13 13:08:00,42.8,42.3,29.49,NW,315,1.6,-999.0,98,-99.99,,,0.08,Acu-Link.com,2013-02-13 18:08:00,
2013-02-13 13:23:00,43.2,42.6,29.48,NE,45,0.0,-999.0,98,-99.99,,,0.08,Acu-Link.com,2013-02-13 18:23:00,
2013-02-13 13:38:00,43.2,42.6,29.47,NE,45,1.1,-999.0,98,-99.99,,,0.08,Acu-Link.com,2013-02-13 18:38:00,
2013-02-13 13:53:00,43.5,43.0,29.46,NNW,337,0.0,-999.0,98,-99.99,,,0.08,Acu-Link.com,2013-02-13 18:53:00,
2013-02-13 14:09:00,43.5,43.0,29.45,NNW,337,0.0,-999.0,98,-99.99,,,0.08,Acu-Link.com,2013-02-13 19:09:00,
2013-02-13 14:24:00,43.9,43.4,29.46,NNW,337,2.2,-999.0,98,-99.99,,,0.11,Acu-Link.com,2013-02-13 19:24:00,
2013-02-13 14:39:00,44.1,43.5,29.44,NNW,337,2.7,-999.0,98,-99.99,,,0.12,Acu-Link.com,2013-02-13 19:39:00,
2013-02-13 14:54:00,43.7,43.2,29.44,NNW,337,1.6,-999.0,98,-99.99,,,0.12,Acu-Link.com,2013-02-13 19:54:00,
2013-02-13 15:09:00,43.7,43.2,29.45,NNW,337,0.0,-999.0,98,-99.99,,,0.12,Acu-Link.com,2013-02-13 20:09:00,
2013-02-13 15:25:00,43.7,43.2,29.45,NE,45,2.2,-999.0,98,-99.99,,,0.12,Acu-Link.com,2013-02-13 20:25:00,
2013-02-13 15:40:00,44.8,44.2,29.46,NE,45,1.6,-999.0,98,-99.99,,,0.12,Acu-Link.com,2013-02-13 20:40:00,
2013-02-13 15:55:00,44.6,44.1,29.45,NE,45,1.6,-999.0,98,-99.99,,,0.13,Acu-Link.com,2013-02-13 20:55:00,
2013-02-13 16:10:00,45.0,44.4,29.45,NE,45,0.0,-999.0,98,-99.99,,,0.13,Acu-Link.com,2013-02-13 21:10:00,
2013-02-13 16:25:00,44.8,44.2,29.44,NE,45,0.0,-999.0,98,-99.99,,,0.13,Acu-Link.com,2013-02-13 21:25:00,
2013-02-13 16:41:00,45.0,44.4,29.44,NE,45,0.0,-999.0,98,-99.99,,,0.13,Acu-Link.com,2013-02-13 21:41:00,
2013-02-13 16:56:00,44.6,44.1,29.45,NE,45,0.0,-999.0,98,-99.99,,,0.13,Acu-Link.com,2013-02-13 21:56:00,
2013-02-13 17:11:00,44.4,43.9,29.45,NE,45,0.0,-999.0,98,-99.99,,,0.13,Acu-Link.com,2013-02-13 22:11:00,
2013-02-13 17:26:00,44.1,43.5,29.46,NE,45,0.0,-999.0,98,-99.99,,,0.14,Acu-Link.com,2013-02-13 22:26:00,
2013-02-13 17:41:00,43.9,43.4,29.47,NW,315,0.0,-999.0,98,-99.99,,,0.14,Acu-Link.com,2013-02-13 22:41:00,
2013-02-13 17:57:00,44.1,43.5,29.48,SSW,202,3.8,-999.0,98,-99.99,,,0.14,Acu-Link.com,2013-02-13 22:57:00,
2013-02-13 18:12:00,44.1,41.3,29.50,SSW,202,6.3,-999.0,90,-99.99,,,0.15,Acu-Link.com,2013-02-13 23:12:00,
2013-02-13 18:27:00,43.0,39.1,29.53,SSW,202,5.1,-999.0,86,-99.99,,,0.15,Acu-Link.com,2013-02-13 23:27:00,
2013-02-13 18:42:00,42.1,37.6,29.53,SW,225,6.7,-999.0,84,-99.99,,,0.15,Acu-Link.com,2013-02-13 23:42:00,
2013-02-13 18:57:00,40.8,36.1,29.55,WSW,247,2.7,-999.0,83,-99.99,,,0.15,Acu-Link.com,2013-02-13 23:57:00,
2013-02-13 19:13:00,40.6,35.6,29.58,SW,225,2.2,-999.0,82,-99.99,,,0.15,Acu-Link.com,2013-02-14 00:13:00,
2013-02-13 19:28:00,40.5,34.8,29.59,SW,225,3.8,-999.0,80,-99.99,,,0.15,Acu-Link.com,2013-02-14 00:28:00,
2013-02-13 19:43:00,40.3,34.9,29.60,SW,225,3.8,-999.0,81,-99.99,,,0.15,Acu-Link.com,2013-02-14 00:43:00,
2013-02-13 19:58:00,39.9,34.6,29.61,SW,225,3.8,-999.0,81,-99.99,,,0.15,Acu-Link.com,2013-02-14 00:58:00,
2013-02-13 20:14:00,39.9,34.3,29.62,South,180,4.3,-999.0,80,-99.99,,,0.15,Acu-Link.com,2013-02-14 01:14:00,
2013-02-13 20:29:00,39.7,34.1,29.63,SW,225,3.1,-999.0,80,-99.99,,,0.15,Acu-Link.com,2013-02-14 01:29:00,
2013-02-13 20:44:00,39.6,33.3,29.63,SW,225,2.7,-999.0,78,-99.99,,,0.15,Acu-Link.com,2013-02-14 01:44:00,
2013-02-13 20:59:00,39.6,33.3,29.64,SW,225,2.7,-999.0,78,-99.99,,,0.15,Acu-Link.com,2013-02-14 01:59:00,
2013-02-13 21:14:00,39.4,33.1,29.65,SW,225,2.7,-999.0,78,-99.99,,,0.15,Acu-Link.com,2013-02-14 02:14:00,
2013-02-13 21:30:00,39.0,33.4,29.65,SSW,202,2.2,-999.0,80,-99.99,,,0.15,Acu-Link.com,2013-02-14 02:30:00,
2013-02-13 21:45:00,39.0,33.4,29.65,SSW,202,4.3,-999.0,80,-99.99,,,0.15,Acu-Link.com,2013-02-14 02:45:00,
2013-02-13 22:00:00,39.2,33.2,29.65,WSW,247,2.7,-999.0,79,-99.99,,,0.15,Acu-Link.com,2013-02-14 03:00:00,
2013-02-13 22:15:00,39.2,33.2,29.65,SSW,202,5.1,-999.0,79,-99.99,,,0.15,Acu-Link.com,2013-02-14 03:15:00,
2013-02-13 22:30:00,39.0,33.7,29.66,SSW,202,4.7,-999.0,81,-99.99,,,0.15,Acu-Link.com,2013-02-14 03:30:00,
2013-02-13 22:46:00,38.7,33.3,29.66,SW,225,2.7,-999.0,81,-99.99,,,0.15,Acu-Link.com,2013-02-14 03:46:00,
2013-02-13 23:01:00,38.8,33.5,29.68,SSW,202,1.6,-999.0,81,-99.99,,,0.15,Acu-Link.com,2013-02-14 04:01:00,
2013-02-13 23:16:00,38.8,33.8,29.68,WSW,247,4.3,-999.0,82,-99.99,,,0.15,Acu-Link.com,2013-02-14 04:16:00,
2013-02-13 23:31:00,38.7,33.6,29.68,SW,225,7.4,-999.0,82,-99.99,,,0.15,Acu-Link.com,2013-02-14 04:31:00,
2013-02-13 23:46:00,38.5,33.8,29.69,SW,225,5.1,-999.0,83,-99.99,,,0.15,Acu-Link.com,2013-02-14 04:46:00,